ΕΜΥ, Εθνική Μετεωρολογική Υπηρεσία - Δελτία Καιρού, Προγνώσεις

ΑΕΡΟΝΑΥΤΙΛΙΑ

GREEK AIRPORTS CODES

LGSR 090720Z 22010KT 9999 SCT025 15/10 Q1018 RMK FEW080=

EUROPEAN AIRPORTS CODES

LFPO 090700Z 25007KT 220V280 CAVOK 02/01 Q1007 NOSIG=